Time;durP1;ratioP1;P1;durP2;ratioP2;P2;SDS_P1;SDS_P2;PMS_P1;PMS_P2;Temp;Humidity;BMP_temperature;BMP_pressure;BME280_temperature;BME280_humidity;BME280_pressure;Samples;Min_cycle;Max_cycle;Signal;HPM_P1;HPM_P2
2024/01/07 00:00:17;;;;;;;6.05;4.10;;;4.10;99.90;;;3.39;100.00;101724.47;4154172;28;20478;-68
2024/01/07 00:02:20;;;;;;;10.88;3.95;;;4.10;99.90;;;3.37;100.00;101715.88;4154655;28;20026;-68
2024/01/07 00:04:20;;;;;;;8.88;4.32;;;4.10;99.90;;;3.33;100.00;101720.44;4153215;28;20572;-68
2024/01/07 00:06:21;;;;;;;8.43;3.60;;;4.10;99.90;;;3.35;100.00;101710.75;4154251;28;20076;-69
2024/01/07 00:08:22;;;;;;;8.98;4.22;;;4.10;99.90;;;3.23;100.00;101717.50;4154857;28;20041;-69
2024/01/07 00:10:23;;;;;;;7.40;4.18;;;4.10;99.90;;;3.20;100.00;101720.25;4153462;28;20523;-69
2024/01/07 00:12:25;;;;;;;7.55;3.05;;;4.00;99.90;;;3.22;100.00;101726.25;4152006;28;20509;-68
2024/01/07 00:14:26;;;;;;;9.32;4.20;;;4.00;99.90;;;3.20;100.00;101725.47;4154298;28;20045;-68
2024/01/07 00:16:26;;;;;;;4.80;3.10;;;4.00;99.90;;;3.27;100.00;101728.59;4154905;28;20440;-69
2024/01/07 00:18:27;;;;;;;6.60;3.65;;;4.10;99.90;;;3.24;100.00;101727.00;4153459;28;20029;-69
2024/01/07 00:20:28;;;;;;;6.10;3.67;;;4.00;99.90;;;3.27;100.00;101724.22;4154815;28;20026;-69
2024/01/07 00:22:29;;;;;;;5.95;3.13;;;4.10;99.90;;;3.24;100.00;101736.59;4154705;28;20018;-69
2024/01/07 00:24:30;;;;;;;5.72;3.53;;;4.00;99.90;;;3.16;100.00;101726.59;4154778;28;20034;-68
2024/01/07 00:26:30;;;;;;;5.50;3.25;;;4.00;99.90;;;3.13;100.00;101729.38;4154535;28;20481;-68
2024/01/07 00:28:31;;;;;;;7.22;3.85;;;4.00;99.90;;;3.11;100.00;101736.41;4154677;28;20402;-68
2024/01/07 00:30:32;;;;;;;6.43;3.65;;;4.00;99.90;;;3.07;100.00;101742.75;4154603;28;20029;-68
2024/01/07 00:32:33;;;;;;;7.88;3.60;;;3.90;99.90;;;3.14;100.00;101735.41;4153430;28;20038;-68
2024/01/07 00:34:34;;;;;;;5.88;3.72;;;3.90;99.90;;;3.05;100.00;101731.53;4154618;28;20547;-69
2024/01/07 00:36:35;;;;;;;7.90;4.30;;;3.90;99.90;;;3.07;100.00;101729.72;4154451;28;20500;-68
2024/01/07 00:38:36;;;;;;;8.93;4.28;;;3.90;99.90;;;3.03;100.00;101735.16;4153106;28;20030;-68
2024/01/07 00:40:38;;;;;;;5.93;3.65;;;3.90;99.90;;;2.99;100.00;101733.63;4146897;28;20528;-68
2024/01/07 00:42:38;;;;;;;9.18;3.92;;;3.90;99.90;;;2.95;100.00;101739.94;4154420;28;20026;-68
2024/01/07 00:44:39;;;;;;;8.38;4.43;;;3.80;99.90;;;2.97;100.00;101749.38;4152761;28;20559;-68
2024/01/07 00:46:40;;;;;;;7.40;3.50;;;3.80;99.90;;;2.94;100.00;101744.31;4154382;28;20033;-68
2024/01/07 00:48:41;;;;;;;7.30;3.83;;;3.80;99.90;;;3.03;100.00;101741.22;4153126;28;20041;-68
2024/01/07 00:50:43;;;;;;;9.23;4.20;;;3.80;99.90;;;2.94;100.00;101746.91;4154389;28;20486;-68
2024/01/07 00:52:45;;;;;;;8.23;4.25;;;3.80;99.90;;;2.91;100.00;101744.47;4152993;28;20044;-68
2024/01/07 00:54:46;;;;;;;8.32;4.05;;;3.80;99.90;;;2.89;100.00;101746.34;4154172;28;20550;-68
2024/01/07 00:56:47;;;;;;;8.40;4.47;;;3.70;99.90;;;2.89;100.00;101750.72;4154025;28;20030;-68
2024/01/07 00:58:47;;;;;;;6.20;3.53;;;3.70;99.90;;;2.84;100.00;101753.53;4153069;28;20022;-68
2024/01/07 01:00:48;;;;;;;5.82;3.97;;;3.70;99.90;;;2.94;100.00;101756.50;4153056;28;20029;-68
2024/01/07 01:02:49;;;;;;;4.28;3.30;;;3.70;99.90;;;2.91;100.00;101759.28;4154290;28;20385;-68
2024/01/07 01:04:50;;;;;;;8.52;4.28;;;3.70;99.90;;;2.95;100.00;101756.44;4140848;28;20034;-68
2024/01/07 01:06:51;;;;;;;7.82;3.85;;;3.70;99.90;;;2.95;100.00;101752.97;4154006;28;20032;-68
2024/01/07 01:08:52;;;;;;;10.30;4.03;;;3.80;99.90;;;2.98;100.00;101761.47;4153896;28;20512;-68
2024/01/07 01:10:53;;;;;;;9.50;4.78;;;3.70;99.90;;;2.91;100.00;101749.69;4153516;28;20042;-68
2024/01/07 01:12:54;;;;;;;6.55;4.00;;;3.70;99.90;;;2.92;100.00;101748.78;4153723;28;20034;-69
2024/01/07 01:14:55;;;;;;;5.72;4.03;;;3.70;99.90;;;2.94;100.00;101746.06;4154064;28;20025;-68
2024/01/07 01:16:56;;;;;;;8.07;4.22;;;3.70;99.90;;;2.97;100.00;101753.72;4152832;28;20053;-68
2024/01/07 01:18:56;;;;;;;8.05;3.83;;;3.70;99.90;;;2.90;100.00;101741.97;4153840;28;20026;-68
2024/01/07 01:20:57;;;;;;;7.18;4.05;;;3.70;99.90;;;2.94;100.00;101754.75;4153717;28;20029;-68
2024/01/07 01:22:58;;;;;;;9.20;4.45;;;3.70;99.90;;;2.90;100.00;101744.59;4153948;28;20033;-68
2024/01/07 01:24:59;;;;;;;8.85;4.20;;;3.70;99.90;;;2.91;100.00;101749.69;4153777;28;20057;-68
2024/01/07 01:27:00;;;;;;;8.43;4.25;;;3.70;99.90;;;3.00;100.00;101748.34;4152323;28;20040;-68
2024/01/07 01:29:01;;;;;;;10.63;4.38;;;3.70;99.90;;;3.00;100.00;101740.53;4152339;28;20025;-68
2024/01/07 01:31:02;;;;;;;10.50;4.45;;;3.80;99.90;;;2.99;100.00;101746.66;4153613;28;20382;-68
2024/01/07 01:33:03;;;;;;;8.60;4.10;;;3.80;99.90;;;2.95;100.00;101758.19;4152500;28;20137;-68
2024/01/07 01:35:06;;;;;;;7.72;4.28;;;3.70;99.90;;;3.03;100.00;101751.63;4152285;28;20029;-68
2024/01/07 01:37:09;;;;;;;6.45;3.67;;;3.80;99.90;;;3.02;100.00;101762.13;4152254;28;20060;-68
2024/01/07 01:39:10;;;;;;;9.43;3.58;;;3.80;99.90;;;3.08;100.00;101759.19;4152476;28;20026;-68
2024/01/07 01:41:10;;;;;;;4.65;3.20;;;3.80;99.90;;;3.09;100.00;101760.88;4153410;28;20029;-68
2024/01/07 01:43:11;;;;;;;4.25;3.30;;;3.80;99.90;;;2.98;100.00;101764.09;4153545;28;20029;-68
2024/01/07 01:45:12;;;;;;;8.13;3.75;;;3.80;99.90;;;2.96;100.00;101765.06;4153345;28;20052;-68
2024/01/07 01:47:13;;;;;;;7.13;3.80;;;3.80;99.90;;;3.02;100.00;101765.59;4153502;28;20026;-68
2024/01/07 01:49:15;;;;;;;5.35;4.25;;;3.80;99.90;;;3.14;100.00;101764.91;4153435;28;20095;-68
2024/01/07 01:51:16;;;;;;;6.85;3.70;;;3.90;99.90;;;3.14;100.00;101764.91;4152269;28;20054;-68
2024/01/07 01:53:17;;;;;;;7.18;2.70;;;3.90;99.90;;;3.16;100.00;101762.25;4153433;28;20033;-68
2024/01/07 01:55:19;;;;;;;8.40;3.50;;;3.90;99.90;;;3.10;100.00;101775.63;4151666;28;20568;-68
2024/01/07 01:57:22;;;;;;;6.93;3.97;;;3.90;99.90;;;3.03;100.00;101767.28;4151802;28;20049;-68
2024/01/07 01:59:25;;;;;;;4.70;3.00;;;3.90;99.90;;;3.00;100.00;101779.63;4151972;28;20030;-68
2024/01/07 02:01:26;;;;;;;5.30;3.10;;;3.80;99.90;;;2.92;100.00;101774.00;4153039;28;20397;-68
2024/01/07 02:03:27;;;;;;;7.60;3.47;;;3.80;99.90;;;2.94;100.00;101783.41;4135673;28;20023;-68
2024/01/07 02:05:28;;;;;;;5.38;3.10;;;3.70;99.90;;;2.86;100.00;101776.94;4153176;28;20105;-68
2024/01/07 02:07:31;;;;;;;10.88;4.32;;;3.70;99.90;;;2.79;100.00;101787.66;4151941;28;20049;-68
2024/01/07 02:09:31;;;;;;;5.22;2.97;;;3.70;99.90;;;2.75;100.00;101786.13;4151702;28;20583;-68
2024/01/07 02:11:32;;;;;;;7.32;3.47;;;3.60;99.90;;;2.68;100.00;101781.34;4151369;28;20042;-68
2024/01/07 02:13:33;;;;;;;4.63;2.80;;;3.60;99.90;;;2.63;100.00;101785.94;4151904;28;20038;-68
2024/01/07 02:15:34;;;;;;;5.20;2.92;;;3.50;99.90;;;2.63;100.00;101783.31;4151802;28;20535;-68
2024/01/07 02:17:35;;;;;;;7.38;3.03;;;3.50;99.90;;;2.73;100.00;101782.78;4152939;28;20437;-68
2024/01/07 02:19:36;;;;;;;11.48;3.38;;;3.50;99.90;;;2.79;100.00;101789.44;4151859;28;20028;-68
2024/01/07 02:21:37;;;;;;;7.82;3.70;;;3.60;99.90;;;2.76;100.00;101781.78;4152055;28;20029;-68
2024/01/07 02:23:38;;;;;;;8.50;3.90;;;3.60;99.90;;;2.66;100.00;101786.63;4152883;28;20026;-68
2024/01/07 02:25:39;;;;;;;6.07;3.58;;;3.50;99.90;;;2.59;100.00;101794.84;4152563;28;20033;-68
2024/01/07 02:27:39;;;;;;;4.85;3.65;;;3.40;99.90;;;2.48;100.00;101790.16;4151603;28;20076;-68
2024/01/07 02:29:40;;;;;;;7.32;3.95;;;3.30;99.90;;;2.37;100.00;101774.25;4151630;28;20033;-68
2024/01/07 02:31:41;;;;;;;7.35;3.25;;;3.30;99.90;;;2.38;100.00;101783.78;4152748;28;20029;-68
2024/01/07 02:33:42;;;;;;;4.70;2.78;;;3.20;99.90;;;2.35;100.00;101788.28;4151715;28;20379;-68
2024/01/07 02:35:43;;;;;;;7.97;3.45;;;3.10;99.90;;;2.34;100.00;101784.00;4151473;28;20034;-68
2024/01/07 02:37:44;;;;;;;4.95;3.30;;;3.10;99.90;;;2.29;100.00;101771.22;4151520;28;20025;-68
2024/01/07 02:39:45;;;;;;;13.02;6.53;;;3.10;99.90;;;2.27;100.00;101772.22;4135188;28;20022;-68
2024/01/07 02:41:46;;;;;;;9.55;4.47;;;3.00;99.90;;;2.21;100.00;101769.00;4152458;28;20041;-68
2024/01/07 02:43:47;;;;;;;9.73;4.90;;;3.00;99.90;;;2.16;100.00;101760.59;4151255;28;20029;-68
2024/01/07 02:45:48;;;;;;;10.02;4.35;;;3.00;99.90;;;2.19;100.00;101773.44;4151505;28;20410;-68
2024/01/07 02:47:48;;;;;;;4.63;3.08;;;3.00;99.90;;;2.21;100.00;101779.41;4152540;28;20101;-68
2024/01/07 02:49:49;;;;;;;6.55;3.25;;;3.00;99.90;;;2.26;100.00;101780.94;4152590;28;20026;-68
2024/01/07 02:51:50;;;;;;;6.05;3.30;;;3.00;99.90;;;2.23;100.00;101785.41;4151093;28;20034;-68
2024/01/07 02:53:51;;;;;;;6.40;3.85;;;3.00;99.90;;;2.21;100.00;101789.81;4152508;28;20028;-68
2024/01/07 02:55:52;;;;;;;6.45;3.65;;;3.00;99.90;;;2.18;100.00;101776.94;4152294;28;20026;-68
2024/01/07 02:57:53;;;;;;;5.68;3.55;;;2.90;99.90;;;2.19;100.00;101786.47;4152660;28;20029;-68
2024/01/07 02:59:54;;;;;;;6.45;4.20;;;3.00;99.90;;;2.21;100.00;101789.81;4152275;28;20030;-68
2024/01/07 03:01:54;;;;;;;6.38;4.22;;;2.90;99.90;;;2.22;100.00;101788.06;4152616;28;20022;-68
2024/01/07 03:03:55;;;;;;;5.93;3.85;;;3.00;99.90;;;2.24;100.00;101789.66;4152383;28;20029;-68
2024/01/07 03:05:56;;;;;;;5.85;3.22;;;2.90;99.90;;;2.28;100.00;101784.31;4152353;28;20030;-68
2024/01/07 03:07:57;;;;;;;8.43;3.40;;;3.00;99.90;;;2.36;100.00;101782.97;4152067;28;20449;-68
2024/01/07 03:09:58;;;;;;;8.45;4.15;;;3.10;99.90;;;2.50;100.00;101795.31;4152220;28;20076;-68
2024/01/07 03:11:58;;;;;;;6.35;3.58;;;3.20;99.90;;;2.61;100.00;101787.78;4151945;28;20062;-68
2024/01/07 03:13:59;;;;;;;6.10;3.85;;;3.30;99.90;;;2.63;100.00;101788.53;4152321;28;20431;-68
2024/01/07 03:16:00;;;;;;;5.25;3.58;;;3.40;99.90;;;2.67;100.00;101788.31;4152213;28;20026;-68
2024/01/07 03:18:01;;;;;;;7.38;3.78;;;3.40;99.90;;;2.62;100.00;101794.69;4151137;28;20026;-68
2024/01/07 03:20:02;;;;;;;9.27;4.10;;;3.40;99.90;;;2.60;100.00;101793.91;4152531;28;20022;-68
2024/01/07 03:22:03;;;;;;;5.82;3.72;;;3.40;99.90;;;2.61;100.00;101799.03;4151115;28;20236;-68
2024/01/07 03:24:05;;;;;;;7.45;4.70;;;3.40;99.90;;;2.62;100.00;101790.31;4152272;28;20030;-68
2024/01/07 03:26:05;;;;;;;8.10;4.43;;;3.40;99.90;;;2.50;100.00;101795.31;4151993;28;20079;-68
2024/01/07 03:28:06;;;;;;;8.98;4.07;;;3.30;99.90;;;2.46;100.00;101789.41;4150857;28;20539;-68
2024/01/07 03:30:09;;;;;;;8.45;3.63;;;3.30;99.90;;;2.45;100.00;101785.13;4151075;28;20436;-68
2024/01/07 03:32:09;;;;;;;7.80;3.70;;;3.20;99.90;;;2.40;100.00;101794.09;4151979;28;20065;-68
2024/01/07 03:34:10;;;;;;;7.95;4.30;;;3.20;99.90;;;2.34;100.00;101790.03;4152135;28;20018;-68
2024/01/07 03:36:13;;;;;;;6.47;3.20;;;3.20;99.90;;;2.30;100.00;101791.09;4134722;28;20053;-68
2024/01/07 03:38:14;;;;;;;6.63;3.63;;;3.10;99.90;;;2.24;100.00;101783.59;4150936;28;20022;-68
2024/01/07 03:40:15;;;;;;;8.30;4.22;;;3.00;99.90;;;2.20;100.00;101788.16;4152038;28;20057;-68
2024/01/07 03:42:16;;;;;;;6.85;3.33;;;2.90;99.90;;;2.14;100.00;101798.88;4150748;28;20026;-68
2024/01/07 03:44:16;;;;;;;6.70;3.63;;;2.90;99.90;;;2.09;100.00;101795.63;4150927;28;20089;-68
2024/01/07 03:46:17;;;;;;;7.50;3.28;;;2.80;99.90;;;2.08;100.00;101799.16;4150755;28;20041;-68
2024/01/07 03:48:19;;;;;;;6.72;3.15;;;2.80;99.90;;;2.08;100.00;101798.31;4150884;28;20080;-68
2024/01/07 03:50:20;;;;;;;7.18;3.63;;;2.90;99.90;;;2.05;100.00;101799.31;4151039;28;20029;-68
2024/01/07 03:52:21;;;;;;;7.28;3.42;;;2.80;99.90;;;2.08;100.00;101803.53;4150804;28;20493;-68
2024/01/07 03:54:22;;;;;;;6.50;3.28;;;2.80;99.90;;;2.13;100.00;101804.13;4152026;28;20447;-68
2024/01/07 03:56:23;;;;;;;5.22;4.07;;;2.90;99.90;;;2.23;100.00;101801.00;4151788;28;20025;-68
2024/01/07 03:58:23;;;;;;;5.72;3.58;;;2.90;99.90;;;2.36;100.00;101797.78;4151768;28;20034;-68
2024/01/07 04:00:24;;;;;;;7.55;4.85;;;3.10;99.90;;;2.46;100.00;101797.22;4150921;28;20467;-68
2024/01/07 04:02:25;;;;;;;5.53;3.88;;;3.20;99.90;;;2.56;100.00;101792.41;4152097;28;20026;-69
2024/01/07 04:04:26;;;;;;;8.07;3.80;;;3.30;99.90;;;2.72;100.00;101801.09;4138606;28;20469;-68
2024/01/07 04:06:27;;;;;;;6.65;4.30;;;3.40;99.90;;;2.82;100.00;101804.91;4150922;28;20033;-68
2024/01/07 04:08:28;;;;;;;8.10;4.60;;;3.50;99.90;;;2.89;100.00;101808.03;4151889;28;20041;-68
2024/01/07 04:10:29;;;;;;;8.80;4.45;;;3.60;99.90;;;2.87;100.00;101797.66;4144218;28;20032;-68
2024/01/07 04:12:30;;;;;;;7.57;3.90;;;3.60;99.90;;;2.79;100.00;101797.25;4150166;28;20081;-68
2024/01/07 04:14:33;;;;;;;9.43;4.47;;;3.50;99.90;;;2.66;100.00;101802.25;4151767;28;20030;-69
2024/01/07 04:16:34;;;;;;;6.38;4.13;;;3.50;99.90;;;2.59;100.00;101798.28;4151829;28;20026;-69
2024/01/07 04:18:35;;;;;;;6.68;4.55;;;3.40;99.90;;;2.55;100.00;101807.19;4134429;28;20026;-68
2024/01/07 04:20:36;;;;;;;5.30;3.90;;;3.30;99.90;;;2.46;100.00;101804.19;4153564;28;20022;-68
2024/01/07 04:22:37;;;;;;;8.25;4.75;;;3.20;99.90;;;2.40;100.00;101804.50;4153628;28;20037;-69
2024/01/07 04:24:41;;;;;;;9.50;4.55;;;3.20;99.90;;;2.38;100.00;101808.97;4154784;28;20022;-68
2024/01/07 04:26:42;;;;;;;6.53;3.90;;;3.20;99.90;;;2.32;100.00;101809.28;4154520;28;20109;-68
2024/01/07 04:28:44;;;;;;;6.45;3.90;;;3.10;99.90;;;2.29;100.00;101806.81;4153586;28;20030;-68
2024/01/07 04:30:45;;;;;;;6.90;4.03;;;3.00;99.90;;;2.24;100.00;101800.06;4154460;28;20026;-68
2024/01/07 04:32:46;;;;;;;9.93;4.43;;;3.00;99.90;;;2.22;100.00;101799.31;4154607;28;20037;-68
2024/01/07 04:34:46;;;;;;;5.55;4.43;;;2.90;99.90;;;2.21;100.00;101792.41;4154656;28;20428;-68
2024/01/07 04:36:47;;;;;;;9.60;3.88;;;2.90;99.90;;;2.24;100.00;101792.25;4153365;28;20022;-68
2024/01/07 04:38:48;;;;;;;6.75;3.88;;;2.90;99.90;;;2.21;100.00;101800.22;4153199;28;20025;-68
2024/01/07 04:40:49;;;;;;;6.55;4.07;;;2.90;99.90;;;2.13;100.00;101796.31;4154382;28;20509;-68
2024/01/07 04:42:50;;;;;;;7.47;4.22;;;2.90;99.90;;;2.19;100.00;101796.88;4154505;28;20034;-68
2024/01/07 04:44:51;;;;;;;9.35;3.92;;;2.90;99.90;;;2.17;100.00;101800.47;4154503;28;20022;-68
2024/01/07 04:46:51;;;;;;;8.10;4.70;;;2.90;99.90;;;2.09;100.00;101787.81;4154315;28;20033;-68
2024/01/07 04:48:52;;;;;;;8.60;4.07;;;2.90;99.90;;;2.10;100.00;101802.53;4154522;28;20029;-68
2024/01/07 04:50:53;;;;;;;5.95;4.05;;;2.80;99.90;;;2.05;100.00;101795.88;4154404;28;20036;-68
2024/01/07 04:52:54;;;;;;;6.60;4.07;;;2.80;99.90;;;2.00;100.00;101795.28;4154272;28;20034;-68
2024/01/07 04:54:55;;;;;;;8.85;4.50;;;2.70;99.90;;;1.98;100.00;101787.53;4152953;28;20034;-68
2024/01/07 04:56:56;;;;;;;5.32;3.75;;;2.80;99.90;;;2.00;100.00;101801.28;4152979;28;20029;-68
2024/01/07 04:58:57;;;;;;;7.00;4.28;;;2.70;99.90;;;1.96;100.00;101791.97;4154197;28;20018;-68
2024/01/07 05:00:58;;;;;;;6.95;3.78;;;2.70;99.90;;;1.98;100.00;101795.31;4154008;28;20077;-68
2024/01/07 05:02:59;;;;;;;7.65;4.00;;;2.70;99.90;;;1.97;100.00;101798.03;4136456;28;20442;-68
2024/01/07 05:05:00;;;;;;;7.18;4.15;;;2.70;99.90;;;1.94;100.00;101799.00;4154175;28;20108;-68
2024/01/07 05:07:01;;;;;;;7.00;4.15;;;2.70;99.90;;;1.93;100.00;101802.53;4152885;28;20567;-68
2024/01/07 05:09:02;;;;;;;8.00;4.15;;;2.70;99.90;;;1.91;100.00;101801.75;4153914;28;20441;-68
2024/01/07 05:11:04;;;;;;;9.43;4.13;;;2.70;99.90;;;1.91;100.00;101799.13;4152374;28;20125;-68
2024/01/07 05:13:06;;;;;;;6.95;4.03;;;2.70;99.90;;;1.90;100.00;101794.88;4153899;28;20030;-68
2024/01/07 05:15:09;;;;;;;7.75;4.43;;;2.60;99.90;;;1.92;100.00;101798.22;4152988;28;20082;-68
2024/01/07 05:17:10;;;;;;;7.95;4.93;;;2.70;99.90;;;1.98;100.00;101810.94;4153872;28;20022;-68
2024/01/07 05:19:10;;;;;;;9.60;4.82;;;2.70;99.90;;;2.00;100.00;101821.28;4153695;28;20041;-68
2024/01/07 05:21:11;;;;;;;8.70;5.10;;;2.70;99.90;;;2.03;100.00;101832.38;4153827;28;20021;-68
2024/01/07 05:23:12;;;;;;;9.07;4.80;;;2.70;99.90;;;2.07;100.00;101822.66;4152580;28;20029;-68
2024/01/07 05:25:13;;;;;;;8.45;4.05;;;2.70;99.90;;;2.11;100.00;101832.84;4152569;28;20029;-68
2024/01/07 05:27:14;;;;;;;7.68;4.40;;;2.80;99.90;;;2.14;100.00;101822.28;4153448;28;20065;-68
2024/01/07 05:29:15;;;;;;;7.15;4.60;;;2.90;99.90;;;2.08;100.00;101825.19;4153786;28;20040;-68
2024/01/07 05:31:19;;;;;;;7.32;3.80;;;2.90;99.90;;;2.00;100.00;101826.50;4152438;28;20028;-68
2024/01/07 05:33:20;;;;;;;;;;;2.80;99.90;;;1.86;100.00;101824.53;4154050;28;20036;-68
2024/01/07 05:35:21;;;;;;;7.70;4.60;;;2.70;99.90;;;1.77;100.00;101824.97;4153611;28;19909;-68
2024/01/07 05:37:21;;;;;;;8.80;4.60;;;2.70;99.90;;;1.67;100.00;101823.75;4153638;28;20033;-68
2024/01/07 05:39:22;;;;;;;9.18;4.30;;;2.50;99.90;;;1.61;100.00;101829.25;4153631;28;20026;-68
2024/01/07 05:41:23;;;;;;;5.97;4.22;;;2.50;99.90;;;1.61;100.00;101835.25;4153347;28;20041;-68
2024/01/07 05:43:24;;;;;;;6.68;4.28;;;2.40;99.90;;;1.62;100.00;101836.13;4152571;28;20022;-68
2024/01/07 05:45:25;;;;;;;5.25;3.88;;;2.40;99.90;;;1.67;100.00;101836.75;4152059;28;20037;-68
2024/01/07 05:47:25;;;;;;;10.07;4.63;;;2.50;99.90;;;1.68;100.00;101841.88;4159182;28;20404;-68
2024/01/07 05:49:26;;;;;;;6.80;4.35;;;2.50;99.90;;;1.75;100.00;101839.84;4135933;28;20038;-68
2024/01/07 05:51:27;;;;;;;8.27;5.43;;;2.50;99.90;;;1.79;100.00;101838.78;4151889;28;20053;-68
2024/01/07 05:53:28;;;;;;;11.40;5.82;;;2.50;99.90;;;1.91;100.00;101848.56;4153209;28;20026;-68
2024/01/07 05:55:29;;;;;;;10.40;5.55;;;2.60;99.90;;;1.91;100.00;101848.56;4153184;28;20022;-68
2024/01/07 05:57:29;;;;;;;10.43;5.20;;;2.70;99.90;;;1.99;100.00;101843.00;4153494;28;20021;-68
2024/01/07 05:59:30;;;;;;;8.13;5.20;;;2.70;99.90;;;2.02;100.00;101856.72;4153356;28;20026;-68
2024/01/07 06:01:32;;;;;;;8.55;5.07;;;2.80;99.90;;;2.05;100.00;101846.16;4151933;28;20018;-68
2024/01/07 06:03:33;;;;;;;8.88;4.95;;;2.80;99.90;;;2.06;100.00;101852.22;4151853;28;20057;-68
2024/01/07 06:05:34;;;;;;;9.27;5.18;;;2.80;99.90;;;2.05;100.00;101853.13;4152579;28;20073;-68
2024/01/07 06:07:35;;;;;;;9.10;4.85;;;2.80;99.90;;;1.99;100.00;101856.88;4151826;28;20026;-68
2024/01/07 06:09:36;;;;;;;6.60;4.57;;;2.70;99.90;;;1.93;100.00;101859.75;4152854;28;20485;-68
2024/01/07 06:11:37;;;;;;;8.05;4.95;;;2.70;99.90;;;1.89;100.00;101870.38;4151339;28;20128;-68
2024/01/07 06:13:38;;;;;;;11.25;5.25;;;2.70;99.90;;;1.83;100.00;101871.50;4153147;28;20018;-68
2024/01/07 06:15:38;;;;;;;8.05;4.93;;;2.60;99.90;;;1.77;100.00;101870.97;4151778;28;20507;-68
2024/01/07 06:17:39;;;;;;;8.07;4.93;;;2.60;99.90;;;1.77;100.00;101874.41;4151713;28;20030;-68
2024/01/07 06:19:40;;;;;;;9.27;4.20;;;2.50;99.90;;;1.80;100.00;101869.06;4141384;28;20026;-68
2024/01/07 06:21:41;;;;;;;8.02;4.80;;;2.60;99.90;;;1.89;100.00;101876.44;4151679;28;20030;-68
2024/01/07 06:23:42;;;;;;;6.95;5.13;;;2.70;99.90;;;1.94;100.00;101878.81;4151642;28;20040;-68
2024/01/07 06:25:42;;;;;;;5.40;4.20;;;2.80;99.90;;;2.04;100.00;101890.47;4151378;28;20489;-68
2024/01/07 06:27:43;;;;;;;11.05;4.57;;;2.80;99.90;;;2.05;100.00;101881.75;4152893;28;20420;-68
2024/01/07 06:29:44;;;;;;;9.10;4.18;;;2.90;99.90;;;2.12;100.00;101889.16;4152864;28;20025;-68
2024/01/07 06:31:45;;;;;;;9.23;4.97;;;2.90;99.90;;;2.13;100.00;101888.25;4152723;28;20040;-68
2024/01/07 06:33:46;;;;;;;7.18;4.57;;;2.90;99.90;;;2.09;100.00;101884.13;4151390;28;20018;-68
2024/01/07 06:35:47;;;;;;;8.32;4.70;;;2.90;99.90;;;2.06;100.00;101883.44;4153011;28;20018;-68
2024/01/07 06:37:48;;;;;;;10.48;5.00;;;2.90;99.90;;;2.07;100.00;101890.31;4152750;28;20029;-68
2024/01/07 06:39:49;;;;;;;7.20;4.78;;;2.90;99.90;;;2.04;100.00;101885.25;4152754;28;20485;-68
2024/01/07 06:41:50;;;;;;;11.77;4.90;;;2.90;99.90;;;1.99;100.00;101875.09;4151942;28;20064;-68
2024/01/07 06:43:53;;;;;;;11.02;4.80;;;2.90;99.90;;;1.98;100.00;101891.59;4152758;28;20025;-68
2024/01/07 06:45:54;;;;;;;9.48;4.15;;;2.80;99.90;;;1.96;100.00;101884.78;4152713;28;20026;-68
2024/01/07 06:47:55;;;;;;;8.07;4.43;;;2.80;99.90;;;1.88;100.00;101881.72;4151415;28;20061;-68
2024/01/07 06:49:56;;;;;;;6.82;4.30;;;2.70;99.90;;;1.86;100.00;101881.78;4152442;28;20037;-68
2024/01/07 06:51:57;;;;;;;8.80;4.32;;;2.70;99.90;;;1.85;100.00;101893.09;4151224;28;20034;-68
2024/01/07 06:53:58;;;;;;;6.32;4.47;;;2.60;99.90;;;1.84;100.00;101895.78;4152568;28;20025;-68
2024/01/07 06:55:58;;;;;;;9.18;4.10;;;2.60;99.90;;;1.81;100.00;101903.72;4152450;28;20029;-68
2024/01/07 06:57:59;;;;;;;8.23;4.45;;;2.60;99.90;;;1.84;100.00;101900.97;4151243;28;20030;-68
2024/01/07 07:00:00;;;;;;;7.72;4.82;;;2.60;99.90;;;1.77;100.00;101900.41;4152538;28;20026;-69
2024/01/07 07:02:01;;;;;;;12.43;5.05;;;2.60;99.90;;;1.77;100.00;101897.81;4151210;28;20485;-68
2024/01/07 07:04:02;;;;;;;10.75;4.65;;;2.50;99.90;;;1.73;100.00;101904.09;4142323;28;20022;-68
2024/01/07 07:06:03;;;;;;;7.65;4.93;;;2.50;99.90;;;1.67;100.00;101899.19;4179735;28;20036;-68
2024/01/07 07:08:05;;;;;;;7.05;3.90;;;2.50;99.90;;;1.64;100.00;101907.94;4151031;28;20064;-70
2024/01/07 07:10:06;;;;;;;9.05;4.97;;;2.50;99.90;;;1.65;100.00;101900.97;4152234;28;20400;-69
2024/01/07 07:12:08;;;;;;;11.10;4.75;;;2.40;99.90;;;1.73;100.00;101905.84;4151560;28;20073;-68
2024/01/07 07:14:08;;;;;;;13.02;4.70;;;2.50;99.90;;;1.81;100.00;101912.38;4151240;28;20026;-68
2024/01/07 07:16:09;;;;;;;11.00;4.55;;;2.60;99.90;;;1.87;100.00;101917.28;4152137;28;20030;-69
2024/01/07 07:18:10;;;;;;;6.35;4.43;;;2.60;99.90;;;1.89;100.00;101920.66;4152354;28;20037;-68
2024/01/07 07:20:11;;;;;;;7.53;4.55;;;2.70;99.90;;;1.96;100.00;101923.81;4152337;28;20113;-68
2024/01/07 07:22:12;;;;;;;12.02;4.32;;;2.70;99.90;;;1.97;100.00;101917.72;4152190;28;20088;-69
2024/01/07 07:24:13;;;;;;;9.93;4.57;;;2.80;99.90;;;2.00;100.00;101931.41;4151900;28;20026;-68
2024/01/07 07:26:14;;;;;;;7.53;4.32;;;2.80;99.90;;;2.05;100.00;101921.63;4152093;28;20041;-68
2024/01/07 07:28:16;;;;;;;6.32;4.38;;;2.90;99.90;;;2.12;100.00;101920.41;4152323;28;20030;-68
2024/01/07 07:30:16;;;;;;;7.75;4.00;;;2.90;99.90;;;2.16;100.00;101916.75;4151060;28;20140;-68
2024/01/07 07:32:18;;;;;;;8.68;5.07;;;3.00;99.90;;;2.18;100.00;101925.31;4151886;28;20030;-68
2024/01/07 07:34:19;;;;;;;9.10;4.70;;;3.00;99.90;;;2.18;100.00;101925.31;4152407;28;20037;-68
2024/01/07 07:36:20;;;;;;;9.55;4.70;;;3.00;99.90;;;2.17;100.00;101928.00;4152189;28;20014;-68
2024/01/07 07:38:21;;;;;;;8.65;4.20;;;3.00;99.90;;;2.11;100.00;101923.94;4152299;28;20022;-68
2024/01/07 07:40:22;;;;;;;12.85;4.65;;;3.00;99.90;;;2.08;100.00;101926.69;4151841;28;20018;-68
2024/01/07 07:42:22;;;;;;;8.85;4.20;;;2.90;99.90;;;2.07;100.00;101937.16;4135489;28;20117;-68
2024/01/07 07:44:23;;;;;;;7.80;4.63;;;2.90;99.90;;;2.03;100.00;101936.44;4160730;28;20025;-68
2024/01/07 07:46:24;;;;;;;8.57;4.75;;;2.90;99.90;;;2.00;100.00;101935.78;4151881;28;20030;-68
2024/01/07 07:48:26;;;;;;;10.98;5.40;;;2.80;99.90;;;2.01;100.00;101933.09;4152062;28;20025;-68
2024/01/07 07:50:27;;;;;;;7.97;4.22;;;2.80;99.90;;;1.96;100.00;101935.06;4151019;28;20025;-68
2024/01/07 07:52:28;;;;;;;6.82;3.97;;;2.80;99.90;;;1.91;100.00;101944.00;4150714;28;20561;-68
2024/01/07 07:54:29;;;;;;;7.57;4.20;;;2.70;99.90;;;1.86;100.00;101935.56;4153586;28;20026;-68
2024/01/07 07:56:30;;;;;;;6.50;3.90;;;2.70;99.90;;;1.82;100.00;101937.50;4154832;28;20539;-68
2024/01/07 07:58:31;;;;;;;12.05;4.20;;;2.60;99.90;;;1.82;100.00;101937.50;4155185;28;20547;-68
2024/01/07 08:00:31;;;;;;;6.72;4.38;;;2.60;99.90;;;1.80;100.00;101941.91;4155054;28;20541;-68
2024/01/07 08:02:32;;;;;;;9.43;5.07;;;2.60;99.90;;;1.76;100.00;101952.53;4153786;28;20030;-68
2024/01/07 08:04:33;;;;;;;8.57;4.32;;;2.60;99.90;;;1.75;100.00;101961.22;4137628;28;20079;-68
2024/01/07 08:06:34;;;;;;;7.07;4.53;;;2.50;99.90;;;1.72;100.00;101967.41;4146049;28;20497;-68
2024/01/07 08:08:35;;;;;;;8.23;4.55;;;2.50;99.90;;;1.69;100.00;101967.56;4153832;28;20481;-68
2024/01/07 08:10:35;;;;;;;7.43;3.83;;;2.50;99.90;;;1.65;100.00;101972.06;4154636;28;20030;-69
2024/01/07 08:12:36;;;;;;;12.63;4.75;;;2.50;99.90;;;1.68;100.00;101979.72;4154267;28;20030;-68
2024/01/07 08:14:40;;;;;;;7.78;4.50;;;2.50;99.90;;;1.77;100.00;101969.81;4154757;28;20038;-68
2024/01/07 08:16:42;;;;;;;8.63;4.80;;;2.50;99.90;;;1.85;100.00;101980.72;4154505;28;20500;-68
2024/01/07 08:18:42;;;;;;;12.32;4.70;;;2.60;99.90;;;1.97;100.00;101974.97;4154522;28;20452;-68
2024/01/07 08:20:43;;;;;;;7.68;4.35;;;2.70;99.90;;;2.13;100.00;101970.69;4154718;28;20145;-68
2024/01/07 08:22:44;;;;;;;11.90;5.28;;;2.90;99.90;;;2.33;100.00;101977.59;4154612;28;20456;-68
2024/01/07 08:24:45;;;;;;;8.02;4.30;;;3.00;99.90;;;2.49;100.00;101978.50;4154771;28;20029;-68
2024/01/07 08:26:46;;;;;;;8.77;5.30;;;3.20;99.90;;;2.54;100.00;101985.19;4154485;28;20061;-68